sensor_id;sensor_type;location;lat;lon;timestamp;P1;durP1;ratioP1;P2;durP2;ratioP2
76636;SDS011;65532;52.124;5.480;2023-05-14T00:00:17;16.92;;;9.20;;
76636;SDS011;65532;52.124;5.480;2023-05-14T00:02:44;15.38;;;9.27;;
76636;SDS011;65532;52.124;5.480;2023-05-14T00:05:11;15.75;;;7.47;;
76636;SDS011;65532;52.124;5.480;2023-05-14T00:07:37;15.30;;;7.32;;
76636;SDS011;65532;52.124;5.480;2023-05-14T00:10:04;14.70;;;8.43;;
76636;SDS011;65532;52.124;5.480;2023-05-14T00:12:31;18.85;;;8.52;;
76636;SDS011;65532;52.124;5.480;2023-05-14T00:14:57;19.55;;;9.23;;
76636;SDS011;65532;52.124;5.480;2023-05-14T00:17:24;14.48;;;7.53;;
76636;SDS011;65532;52.124;5.480;2023-05-14T00:19:50;16.08;;;8.18;;
76636;SDS011;65532;52.124;5.480;2023-05-14T00:22:17;16.27;;;8.55;;
76636;SDS011;65532;52.124;5.480;2023-05-14T00:24:43;13.35;;;8.20;;
76636;SDS011;65532;52.124;5.480;2023-05-14T00:27:10;17.17;;;8.70;;
76636;SDS011;65532;52.124;5.480;2023-05-14T00:29:37;15.05;;;8.73;;
76636;SDS011;65532;52.124;5.480;2023-05-14T00:32:04;18.35;;;8.75;;
76636;SDS011;65532;52.124;5.480;2023-05-14T00:34:30;16.70;;;9.70;;
76636;SDS011;65532;52.124;5.480;2023-05-14T00:36:57;16.98;;;8.50;;
76636;SDS011;65532;52.124;5.480;2023-05-14T00:39:23;16.27;;;8.27;;
76636;SDS011;65532;52.124;5.480;2023-05-14T00:41:50;16.08;;;8.52;;
76636;SDS011;65532;52.124;5.480;2023-05-14T00:44:16;15.30;;;8.27;;
76636;SDS011;65532;52.124;5.480;2023-05-14T00:46:43;15.35;;;8.13;;
76636;SDS011;65532;52.124;5.480;2023-05-14T00:49:09;19.75;;;9.30;;
76636;SDS011;65532;52.124;5.480;2023-05-14T00:51:36;15.07;;;8.00;;
76636;SDS011;65532;52.124;5.480;2023-05-14T00:54:03;16.55;;;9.27;;
76636;SDS011;65532;52.124;5.480;2023-05-14T00:56:30;14.32;;;7.72;;
76636;SDS011;65532;52.124;5.480;2023-05-14T00:58:57;17.17;;;8.48;;
76636;SDS011;65532;52.124;5.480;2023-05-14T01:01:23;17.50;;;7.32;;
76636;SDS011;65532;52.124;5.480;2023-05-14T01:03:50;14.68;;;8.00;;
76636;SDS011;65532;52.124;5.480;2023-05-14T01:06:41;15.73;;;6.97;;
76636;SDS011;65532;52.124;5.480;2023-05-14T01:09:39;13.40;;;6.70;;
76636;SDS011;65532;52.124;5.480;2023-05-14T01:12:20;13.48;;;6.82;;
76636;SDS011;65532;52.124;5.480;2023-05-14T01:15:20;12.93;;;7.15;;
76636;SDS011;65532;52.124;5.480;2023-05-14T01:17:53;15.70;;;7.68;;
76636;SDS011;65532;52.124;5.480;2023-05-14T01:20:21;14.70;;;6.90;;
76636;SDS011;65532;52.124;5.480;2023-05-14T01:22:48;14.65;;;7.38;;
76636;SDS011;65532;52.124;5.480;2023-05-14T01:25:15;15.90;;;7.85;;
76636;SDS011;65532;52.124;5.480;2023-05-14T01:27:45;14.57;;;8.20;;
76636;SDS011;65532;52.124;5.480;2023-05-14T01:30:33;12.73;;;6.95;;
76636;SDS011;65532;52.124;5.480;2023-05-14T01:33:02;16.98;;;7.32;;
76636;SDS011;65532;52.124;5.480;2023-05-14T01:35:34;12.55;;;6.95;;
76636;SDS011;65532;52.124;5.480;2023-05-14T01:38:01;13.90;;;6.93;;
76636;SDS011;65532;52.124;5.480;2023-05-14T01:40:30;16.17;;;8.18;;
76636;SDS011;65532;52.124;5.480;2023-05-14T01:42:58;13.85;;;7.53;;
76636;SDS011;65532;52.124;5.480;2023-05-14T01:45:25;16.35;;;8.07;;
76636;SDS011;65532;52.124;5.480;2023-05-14T01:47:52;14.23;;;7.00;;
76636;SDS011;65532;52.124;5.480;2023-05-14T01:50:18;15.35;;;6.45;;
76636;SDS011;65532;52.124;5.480;2023-05-14T01:52:45;16.88;;;6.53;;
76636;SDS011;65532;52.124;5.480;2023-05-14T01:55:13;12.30;;;7.25;;
76636;SDS011;65532;52.124;5.480;2023-05-14T01:57:40;14.95;;;6.80;;
76636;SDS011;65532;52.124;5.480;2023-05-14T02:00:07;14.57;;;6.75;;
76636;SDS011;65532;52.124;5.480;2023-05-14T02:02:40;14.85;;;7.43;;
76636;SDS011;65532;52.124;5.480;2023-05-14T02:05:09;14.52;;;7.93;;
76636;SDS011;65532;52.124;5.480;2023-05-14T02:07:36;16.63;;;7.07;;
76636;SDS011;65532;52.124;5.480;2023-05-14T02:10:03;16.90;;;7.55;;
76636;SDS011;65532;52.124;5.480;2023-05-14T02:12:30;17.42;;;8.18;;
76636;SDS011;65532;52.124;5.480;2023-05-14T02:14:57;16.63;;;7.75;;
76636;SDS011;65532;52.124;5.480;2023-05-14T02:17:24;14.95;;;6.72;;
76636;SDS011;65532;52.124;5.480;2023-05-14T02:19:51;13.50;;;7.03;;
76636;SDS011;65532;52.124;5.480;2023-05-14T02:22:18;14.07;;;7.28;;
76636;SDS011;65532;52.124;5.480;2023-05-14T02:24:44;15.20;;;6.97;;
76636;SDS011;65532;52.124;5.480;2023-05-14T02:27:11;15.27;;;6.75;;
76636;SDS011;65532;52.124;5.480;2023-05-14T02:29:38;16.55;;;8.25;;
76636;SDS011;65532;52.124;5.480;2023-05-14T02:32:04;12.65;;;7.35;;
76636;SDS011;65532;52.124;5.480;2023-05-14T02:34:31;15.77;;;6.70;;
76636;SDS011;65532;52.124;5.480;2023-05-14T02:36:59;13.05;;;6.80;;
76636;SDS011;65532;52.124;5.480;2023-05-14T02:39:26;15.38;;;6.35;;
76636;SDS011;65532;52.124;5.480;2023-05-14T02:41:52;13.02;;;6.72;;
76636;SDS011;65532;52.124;5.480;2023-05-14T02:44:19;13.73;;;6.82;;
76636;SDS011;65532;52.124;5.480;2023-05-14T02:46:46;14.80;;;7.07;;
76636;SDS011;65532;52.124;5.480;2023-05-14T02:49:13;13.05;;;6.55;;
76636;SDS011;65532;52.124;5.480;2023-05-14T02:51:39;12.32;;;5.97;;
76636;SDS011;65532;52.124;5.480;2023-05-14T02:54:05;14.63;;;7.18;;
76636;SDS011;65532;52.124;5.480;2023-05-14T02:56:32;14.30;;;7.07;;
76636;SDS011;65532;52.124;5.480;2023-05-14T02:58:59;15.95;;;6.80;;
76636;SDS011;65532;52.124;5.480;2023-05-14T03:01:26;14.70;;;8.02;;
76636;SDS011;65532;52.124;5.480;2023-05-14T03:03:53;16.02;;;7.82;;
76636;SDS011;65532;52.124;5.480;2023-05-14T03:06:19;14.68;;;7.43;;
76636;SDS011;65532;52.124;5.480;2023-05-14T03:08:45;16.42;;;7.78;;
76636;SDS011;65532;52.124;5.480;2023-05-14T03:11:12;16.10;;;7.13;;
76636;SDS011;65532;52.124;5.480;2023-05-14T03:13:38;13.60;;;8.05;;
76636;SDS011;65532;52.124;5.480;2023-05-14T03:16:05;14.85;;;7.70;;
76636;SDS011;65532;52.124;5.480;2023-05-14T03:18:31;13.68;;;6.78;;
76636;SDS011;65532;52.124;5.480;2023-05-14T03:21:00;11.68;;;6.75;;
76636;SDS011;65532;52.124;5.480;2023-05-14T03:23:26;13.10;;;7.65;;
76636;SDS011;65532;52.124;5.480;2023-05-14T03:25:53;14.23;;;7.05;;
76636;SDS011;65532;52.124;5.480;2023-05-14T03:28:19;13.93;;;7.10;;
76636;SDS011;65532;52.124;5.480;2023-05-14T03:30:45;14.02;;;6.55;;
76636;SDS011;65532;52.124;5.480;2023-05-14T03:33:12;15.32;;;8.48;;
76636;SDS011;65532;52.124;5.480;2023-05-14T03:35:39;15.10;;;6.35;;
76636;SDS011;65532;52.124;5.480;2023-05-14T03:38:05;11.77;;;6.10;;
76636;SDS011;65532;52.124;5.480;2023-05-14T03:40:33;14.50;;;7.18;;
76636;SDS011;65532;52.124;5.480;2023-05-14T03:42:59;11.90;;;6.63;;
76636;SDS011;65532;52.124;5.480;2023-05-14T03:45:26;19.38;;;7.85;;
76636;SDS011;65532;52.124;5.480;2023-05-14T03:47:53;20.15;;;7.55;;
76636;SDS011;65532;52.124;5.480;2023-05-14T03:50:20;11.80;;;6.55;;
76636;SDS011;65532;52.124;5.480;2023-05-14T03:52:51;15.25;;;6.82;;
76636;SDS011;65532;52.124;5.480;2023-05-14T03:55:18;15.38;;;6.80;;
76636;SDS011;65532;52.124;5.480;2023-05-14T03:57:45;13.32;;;7.35;;
76636;SDS011;65532;52.124;5.480;2023-05-14T04:00:11;13.25;;;6.05;;
76636;SDS011;65532;52.124;5.480;2023-05-14T04:02:44;12.95;;;6.78;;
76636;SDS011;65532;52.124;5.480;2023-05-14T04:05:11;14.80;;;8.02;;
76636;SDS011;65532;52.124;5.480;2023-05-14T04:07:37;18.20;;;8.35;;
76636;SDS011;65532;52.124;5.480;2023-05-14T04:10:04;15.70;;;7.25;;
76636;SDS011;65532;52.124;5.480;2023-05-14T04:12:33;15.05;;;6.47;;
76636;SDS011;65532;52.124;5.480;2023-05-14T04:15:00;15.52;;;7.32;;
76636;SDS011;65532;52.124;5.480;2023-05-14T04:17:26;13.32;;;7.25;;
76636;SDS011;65532;52.124;5.480;2023-05-14T04:19:53;15.95;;;7.70;;
76636;SDS011;65532;52.124;5.480;2023-05-14T04:22:20;18.15;;;7.38;;
76636;SDS011;65532;52.124;5.480;2023-05-14T04:24:46;14.43;;;6.82;;
76636;SDS011;65532;52.124;5.480;2023-05-14T04:27:19;16.08;;;7.72;;
76636;SDS011;65532;52.124;5.480;2023-05-14T04:29:47;15.63;;;6.60;;
76636;SDS011;65532;52.124;5.480;2023-05-14T04:32:13;15.15;;;7.05;;
76636;SDS011;65532;52.124;5.480;2023-05-14T04:34:40;15.40;;;8.10;;
76636;SDS011;65532;52.124;5.480;2023-05-14T04:37:06;16.10;;;7.28;;
76636;SDS011;65532;52.124;5.480;2023-05-14T04:39:33;14.07;;;6.55;;
76636;SDS011;65532;52.124;5.480;2023-05-14T04:41:59;17.48;;;7.30;;
76636;SDS011;65532;52.124;5.480;2023-05-14T04:44:26;17.60;;;7.78;;
76636;SDS011;65532;52.124;5.480;2023-05-14T04:46:52;15.23;;;7.15;;
76636;SDS011;65532;52.124;5.480;2023-05-14T04:49:18;19.27;;;9.00;;
76636;SDS011;65532;52.124;5.480;2023-05-14T04:51:46;15.35;;;7.13;;
76636;SDS011;65532;52.124;5.480;2023-05-14T04:54:13;16.15;;;7.47;;
76636;SDS011;65532;52.124;5.480;2023-05-14T04:56:39;12.43;;;5.95;;
76636;SDS011;65532;52.124;5.480;2023-05-14T04:59:06;16.55;;;6.45;;
76636;SDS011;65532;52.124;5.480;2023-05-14T05:01:32;13.38;;;7.45;;
76636;SDS011;65532;52.124;5.480;2023-05-14T05:03:59;16.30;;;7.70;;
76636;SDS011;65532;52.124;5.480;2023-05-14T05:06:25;13.00;;;6.18;;
76636;SDS011;65532;52.124;5.480;2023-05-14T05:08:52;12.73;;;6.55;;
76636;SDS011;65532;52.124;5.480;2023-05-14T05:11:18;14.52;;;7.75;;
76636;SDS011;65532;52.124;5.480;2023-05-14T05:13:46;13.27;;;6.78;;
76636;SDS011;65532;52.124;5.480;2023-05-14T05:16:12;11.20;;;5.88;;
76636;SDS011;65532;52.124;5.480;2023-05-14T05:18:39;15.73;;;7.18;;
76636;SDS011;65532;52.124;5.480;2023-05-14T05:21:06;15.18;;;6.55;;
76636;SDS011;65532;52.124;5.480;2023-05-14T05:23:32;13.48;;;6.75;;
76636;SDS011;65532;52.124;5.480;2023-05-14T05:25:59;13.75;;;7.00;;
76636;SDS011;65532;52.124;5.480;2023-05-14T05:28:25;11.52;;;6.80;;
76636;SDS011;65532;52.124;5.480;2023-05-14T05:30:52;12.63;;;6.88;;
76636;SDS011;65532;52.124;5.480;2023-05-14T05:33:19;11.07;;;6.18;;
76636;SDS011;65532;52.124;5.480;2023-05-14T05:35:45;14.23;;;6.32;;
76636;SDS011;65532;52.124;5.480;2023-05-14T05:38:13;16.00;;;8.80;;
76636;SDS011;65532;52.124;5.480;2023-05-14T05:40:40;13.35;;;7.05;;
76636;SDS011;65532;52.124;5.480;2023-05-14T05:43:07;13.15;;;6.05;;
76636;SDS011;65532;52.124;5.480;2023-05-14T05:45:33;12.32;;;5.80;;
76636;SDS011;65532;52.124;5.480;2023-05-14T05:48:00;11.48;;;6.25;;
76636;SDS011;65532;52.124;5.480;2023-05-14T05:50:26;15.75;;;7.25;;
76636;SDS011;65532;52.124;5.480;2023-05-14T05:52:53;15.35;;;6.57;;
76636;SDS011;65532;52.124;5.480;2023-05-14T05:55:19;17.50;;;5.88;;
76636;SDS011;65532;52.124;5.480;2023-05-14T05:57:46;11.07;;;5.38;;
76636;SDS011;65532;52.124;5.480;2023-05-14T06:00:12;12.85;;;6.90;;
76636;SDS011;65532;52.124;5.480;2023-05-14T06:02:39;12.65;;;6.35;;
76636;SDS011;65532;52.124;5.480;2023-05-14T06:05:07;14.93;;;6.32;;
76636;SDS011;65532;52.124;5.480;2023-05-14T06:07:34;10.35;;;5.47;;
76636;SDS011;65532;52.124;5.480;2023-05-14T06:10:01;13.35;;;5.25;;
76636;SDS011;65532;52.124;5.480;2023-05-14T06:12:27;12.43;;;5.57;;
76636;SDS011;65532;52.124;5.480;2023-05-14T06:14:54;14.25;;;6.28;;
76636;SDS011;65532;52.124;5.480;2023-05-14T06:17:23;14.65;;;6.25;;
76636;SDS011;65532;52.124;5.480;2023-05-14T06:19:50;14.75;;;6.43;;
76636;SDS011;65532;52.124;5.480;2023-05-14T06:22:17;10.90;;;5.07;;
76636;SDS011;65532;52.124;5.480;2023-05-14T06:24:43;10.57;;;5.68;;
76636;SDS011;65532;52.124;5.480;2023-05-14T06:27:10;14.85;;;5.95;;
76636;SDS011;65532;52.124;5.480;2023-05-14T06:29:36;12.50;;;5.38;;
76636;SDS011;65532;52.124;5.480;2023-05-14T06:32:03;10.73;;;5.55;;
76636;SDS011;65532;52.124;5.480;2023-05-14T06:34:30;8.82;;;4.47;;
76636;SDS011;65532;52.124;5.480;2023-05-14T06:36:57;10.60;;;5.53;;
76636;SDS011;65532;52.124;5.480;2023-05-14T06:39:23;10.43;;;5.32;;
76636;SDS011;65532;52.124;5.480;2023-05-14T06:41:50;10.65;;;5.13;;
76636;SDS011;65532;52.124;5.480;2023-05-14T06:44:17;8.85;;;4.72;;
76636;SDS011;65532;52.124;5.480;2023-05-14T06:46:44;11.73;;;5.22;;
76636;SDS011;65532;52.124;5.480;2023-05-14T06:49:11;11.63;;;5.50;;
76636;SDS011;65532;52.124;5.480;2023-05-14T06:51:37;14.00;;;5.65;;
76636;SDS011;65532;52.124;5.480;2023-05-14T06:54:04;12.38;;;4.85;;
76636;SDS011;65532;52.124;5.480;2023-05-14T06:56:30;11.10;;;4.57;;
76636;SDS011;65532;52.124;5.480;2023-05-14T06:58:57;12.55;;;4.65;;
76636;SDS011;65532;52.124;5.480;2023-05-14T07:01:23;8.55;;;4.47;;
76636;SDS011;65532;52.124;5.480;2023-05-14T07:03:50;8.93;;;5.13;;
76636;SDS011;65532;52.124;5.480;2023-05-14T07:06:16;10.57;;;3.70;;
76636;SDS011;65532;52.124;5.480;2023-05-14T07:08:43;8.13;;;4.63;;
76636;SDS011;65532;52.124;5.480;2023-05-14T07:11:12;9.70;;;4.65;;
76636;SDS011;65532;52.124;5.480;2023-05-14T07:13:39;11.18;;;4.40;;
76636;SDS011;65532;52.124;5.480;2023-05-14T07:16:06;10.05;;;6.00;;
76636;SDS011;65532;52.124;5.480;2023-05-14T07:18:36;10.70;;;5.95;;
76636;SDS011;65532;52.124;5.480;2023-05-14T07:21:03;10.88;;;4.97;;
76636;SDS011;65532;52.124;5.480;2023-05-14T07:23:32;10.25;;;4.93;;
76636;SDS011;65532;52.124;5.480;2023-05-14T07:26:01;10.45;;;5.28;;
76636;SDS011;65532;52.124;5.480;2023-05-14T07:28:28;12.77;;;5.22;;
76636;SDS011;65532;52.124;5.480;2023-05-14T07:30:54;7.50;;;4.55;;
76636;SDS011;65532;52.124;5.480;2023-05-14T07:33:21;11.27;;;5.65;;
76636;SDS011;65532;52.124;5.480;2023-05-14T07:35:47;10.63;;;5.18;;
76636;SDS011;65532;52.124;5.480;2023-05-14T07:38:14;7.70;;;3.38;;
76636;SDS011;65532;52.124;5.480;2023-05-14T07:40:41;9.00;;;4.40;;
76636;SDS011;65532;52.124;5.480;2023-05-14T07:43:08;8.70;;;4.93;;
76636;SDS011;65532;52.124;5.480;2023-05-14T07:45:35;11.57;;;4.90;;
76636;SDS011;65532;52.124;5.480;2023-05-14T07:48:02;8.80;;;4.75;;
76636;SDS011;65532;52.124;5.480;2023-05-14T07:50:29;13.18;;;4.93;;
76636;SDS011;65532;52.124;5.480;2023-05-14T07:52:56;9.40;;;5.22;;
76636;SDS011;65532;52.124;5.480;2023-05-14T07:55:22;10.05;;;5.60;;
76636;SDS011;65532;52.124;5.480;2023-05-14T07:57:49;9.98;;;5.80;;
76636;SDS011;65532;52.124;5.480;2023-05-14T08:00:16;10.30;;;5.53;;
76636;SDS011;65532;52.124;5.480;2023-05-14T08:02:42;9.80;;;5.05;;
76636;SDS011;65532;52.124;5.480;2023-05-14T08:05:09;10.38;;;4.43;;
76636;SDS011;65532;52.124;5.480;2023-05-14T08:07:36;10.07;;;4.53;;
76636;SDS011;65532;52.124;5.480;2023-05-14T08:10:03;9.57;;;4.65;;
76636;SDS011;65532;52.124;5.480;2023-05-14T08:12:29;11.05;;;4.82;;
76636;SDS011;65532;52.124;5.480;2023-05-14T08:14:56;9.98;;;5.05;;
76636;SDS011;65532;52.124;5.480;2023-05-14T08:17:23;9.43;;;4.80;;
76636;SDS011;65532;52.124;5.480;2023-05-14T08:19:49;9.82;;;4.13;;
76636;SDS011;65532;52.124;5.480;2023-05-14T08:22:16;10.07;;;5.95;;
76636;SDS011;65532;52.124;5.480;2023-05-14T08:24:42;12.32;;;5.43;;
76636;SDS011;65532;52.124;5.480;2023-05-14T08:27:09;9.93;;;4.85;;
76636;SDS011;65532;52.124;5.480;2023-05-14T08:29:35;10.50;;;5.32;;
76636;SDS011;65532;52.124;5.480;2023-05-14T08:32:02;11.13;;;5.07;;
76636;SDS011;65532;52.124;5.480;2023-05-14T08:34:41;10.93;;;5.22;;
76636;SDS011;65532;52.124;5.480;2023-05-14T08:37:09;11.23;;;6.13;;
76636;SDS011;65532;52.124;5.480;2023-05-14T08:39:35;11.73;;;5.47;;
76636;SDS011;65532;52.124;5.480;2023-05-14T08:42:02;10.82;;;4.57;;
76636;SDS011;65532;52.124;5.480;2023-05-14T08:44:35;10.45;;;5.53;;
76636;SDS011;65532;52.124;5.480;2023-05-14T08:47:04;10.07;;;5.63;;
76636;SDS011;65532;52.124;5.480;2023-05-14T08:49:39;7.47;;;4.90;;
76636;SDS011;65532;52.124;5.480;2023-05-14T08:52:11;9.50;;;5.13;;
76636;SDS011;65532;52.124;5.480;2023-05-14T08:54:39;11.43;;;6.10;;
76636;SDS011;65532;52.124;5.480;2023-05-14T08:57:06;11.90;;;6.18;;
76636;SDS011;65532;52.124;5.480;2023-05-14T08:59:34;10.95;;;5.60;;
76636;SDS011;65532;52.124;5.480;2023-05-14T09:02:01;8.10;;;4.93;;
76636;SDS011;65532;52.124;5.480;2023-05-14T09:04:31;10.85;;;4.80;;
76636;SDS011;65532;52.124;5.480;2023-05-14T09:06:58;7.32;;;4.80;;
76636;SDS011;65532;52.124;5.480;2023-05-14T09:09:27;10.80;;;5.90;;
76636;SDS011;65532;52.124;5.480;2023-05-14T09:11:53;8.68;;;5.50;;
76636;SDS011;65532;52.124;5.480;2023-05-14T09:14:21;7.18;;;4.55;;
76636;SDS011;65532;52.124;5.480;2023-05-14T09:16:49;11.40;;;6.07;;
76636;SDS011;65532;52.124;5.480;2023-05-14T09:19:16;12.65;;;5.57;;
76636;SDS011;65532;52.124;5.480;2023-05-14T09:21:47;10.25;;;4.43;;
76636;SDS011;65532;52.124;5.480;2023-05-14T09:24:21;9.18;;;5.15;;
76636;SDS011;65532;52.124;5.480;2023-05-14T09:26:49;10.48;;;6.70;;
76636;SDS011;65532;52.124;5.480;2023-05-14T09:29:17;9.95;;;5.22;;
76636;SDS011;65532;52.124;5.480;2023-05-14T09:31:43;7.18;;;4.70;;
76636;SDS011;65532;52.124;5.480;2023-05-14T09:34:11;9.75;;;5.38;;
76636;SDS011;65532;52.124;5.480;2023-05-14T09:36:48;10.88;;;4.22;;
76636;SDS011;65532;52.124;5.480;2023-05-14T09:39:14;8.63;;;4.68;;
76636;SDS011;65532;52.124;5.480;2023-05-14T09:41:42;9.20;;;4.13;;
76636;SDS011;65532;52.124;5.480;2023-05-14T09:44:09;13.48;;;5.18;;
76636;SDS011;65532;52.124;5.480;2023-05-14T09:46:36;10.38;;;5.65;;
76636;SDS011;65532;52.124;5.480;2023-05-14T09:49:02;13.75;;;4.45;;
76636;SDS011;65532;52.124;5.480;2023-05-14T09:51:29;9.70;;;4.45;;
76636;SDS011;65532;52.124;5.480;2023-05-14T09:53:57;9.35;;;5.25;;
76636;SDS011;65532;52.124;5.480;2023-05-14T09:56:24;8.32;;;4.72;;
76636;SDS011;65532;52.124;5.480;2023-05-14T09:58:51;8.55;;;4.65;;
76636;SDS011;65532;52.124;5.480;2023-05-14T10:01:18;8.90;;;4.32;;
76636;SDS011;65532;52.124;5.480;2023-05-14T10:03:46;11.07;;;4.85;;
76636;SDS011;65532;52.124;5.480;2023-05-14T10:06:12;6.85;;;4.72;;
76636;SDS011;65532;52.124;5.480;2023-05-14T10:08:42;10.30;;;4.93;;
76636;SDS011;65532;52.124;5.480;2023-05-14T10:11:12;9.48;;;4.88;;
76636;SDS011;65532;52.124;5.480;2023-05-14T10:13:47;12.65;;;5.03;;
76636;SDS011;65532;52.124;5.480;2023-05-14T10:16:27;7.57;;;4.07;;
76636;SDS011;65532;52.124;5.480;2023-05-14T10:19:01;10.32;;;4.15;;
76636;SDS011;65532;52.124;5.480;2023-05-14T10:21:34;6.38;;;4.07;;
76636;SDS011;65532;52.124;5.480;2023-05-14T10:24:04;9.48;;;4.35;;
76636;SDS011;65532;52.124;5.480;2023-05-14T10:26:33;11.05;;;4.68;;
76636;SDS011;65532;52.124;5.480;2023-05-14T10:29:05;6.43;;;4.60;;
76636;SDS011;65532;52.124;5.480;2023-05-14T10:31:43;12.05;;;4.70;;
76636;SDS011;65532;52.124;5.480;2023-05-14T10:34:30;8.65;;;5.07;;
76636;SDS011;65532;52.124;5.480;2023-05-14T10:39:49;7.32;;;4.10;;
76636;SDS011;65532;52.124;5.480;2023-05-14T10:42:23;9.02;;;4.72;;
76636;SDS011;65532;52.124;5.480;2023-05-14T10:44:56;8.10;;;4.75;;
76636;SDS011;65532;52.124;5.480;2023-05-14T10:47:27;7.55;;;4.38;;
76636;SDS011;65532;52.124;5.480;2023-05-14T10:49:56;12.50;;;5.25;;
76636;SDS011;65532;52.124;5.480;2023-05-14T10:52:24;12.10;;;5.15;;
76636;SDS011;65532;52.124;5.480;2023-05-14T10:55:01;9.38;;;4.97;;
76636;SDS011;65532;52.124;5.480;2023-05-14T10:57:34;8.93;;;5.30;;
76636;SDS011;65532;52.124;5.480;2023-05-14T11:00:03;10.40;;;4.68;;
76636;SDS011;65532;52.124;5.480;2023-05-14T11:02:36;8.27;;;4.13;;
76636;SDS011;65532;52.124;5.480;2023-05-14T11:05:05;13.15;;;6.93;;
76636;SDS011;65532;52.124;5.480;2023-05-14T11:07:37;8.60;;;4.88;;
76636;SDS011;65532;52.124;5.480;2023-05-14T11:10:11;8.70;;;4.45;;
76636;SDS011;65532;52.124;5.480;2023-05-14T11:12:40;12.75;;;4.00;;
76636;SDS011;65532;52.124;5.480;2023-05-14T11:15:08;9.18;;;4.13;;
76636;SDS011;65532;52.124;5.480;2023-05-14T11:17:38;10.10;;;4.50;;
76636;SDS011;65532;52.124;5.480;2023-05-14T11:20:06;9.95;;;4.82;;
76636;SDS011;65532;52.124;5.480;2023-05-14T11:22:34;8.23;;;4.40;;
76636;SDS011;65532;52.124;5.480;2023-05-14T11:25:01;9.38;;;5.18;;
76636;SDS011;65532;52.124;5.480;2023-05-14T11:27:29;8.88;;;5.60;;
76636;SDS011;65532;52.124;5.480;2023-05-14T11:29:56;8.88;;;5.35;;
76636;SDS011;65532;52.124;5.480;2023-05-14T11:32:23;10.95;;;5.13;;
76636;SDS011;65532;52.124;5.480;2023-05-14T11:34:50;10.57;;;4.63;;
76636;SDS011;65532;52.124;5.480;2023-05-14T11:37:17;8.90;;;4.47;;
76636;SDS011;65532;52.124;5.480;2023-05-14T11:39:51;9.70;;;4.15;;
76636;SDS011;65532;52.124;5.480;2023-05-14T11:42:19;9.73;;;4.35;;
76636;SDS011;65532;52.124;5.480;2023-05-14T11:44:48;8.57;;;3.47;;
76636;SDS011;65532;52.124;5.480;2023-05-14T11:47:17;6.03;;;3.70;;
76636;SDS011;65532;52.124;5.480;2023-05-14T11:49:44;8.38;;;3.72;;
76636;SDS011;65532;52.124;5.480;2023-05-14T11:52:12;8.32;;;3.83;;
76636;SDS011;65532;52.124;5.480;2023-05-14T11:54:41;7.78;;;3.92;;
76636;SDS011;65532;52.124;5.480;2023-05-14T11:57:10;10.10;;;4.43;;
76636;SDS011;65532;52.124;5.480;2023-05-14T11:59:38;9.57;;;3.72;;
76636;SDS011;65532;52.124;5.480;2023-05-14T12:02:07;6.72;;;4.07;;
76636;SDS011;65532;52.124;5.480;2023-05-14T12:04:35;9.88;;;4.03;;
76636;SDS011;65532;52.124;5.480;2023-05-14T12:07:12;7.85;;;4.55;;
76636;SDS011;65532;52.124;5.480;2023-05-14T12:09:41;6.90;;;3.70;;
76636;SDS011;65532;52.124;5.480;2023-05-14T12:12:14;7.88;;;3.78;;
76636;SDS011;65532;52.124;5.480;2023-05-14T12:14:48;7.60;;;4.70;;
76636;SDS011;65532;52.124;5.480;2023-05-14T12:17:21;9.27;;;5.07;;
76636;SDS011;65532;52.124;5.480;2023-05-14T12:19:49;9.27;;;3.58;;
76636;SDS011;65532;52.124;5.480;2023-05-14T12:22:20;10.38;;;4.57;;
76636;SDS011;65532;52.124;5.480;2023-05-14T12:24:52;8.85;;;3.80;;
76636;SDS011;65532;52.124;5.480;2023-05-14T12:27:25;8.90;;;4.07;;
76636;SDS011;65532;52.124;5.480;2023-05-14T12:30:00;7.60;;;3.03;;
76636;SDS011;65532;52.124;5.480;2023-05-14T12:32:46;7.80;;;4.18;;
76636;SDS011;65532;52.124;5.480;2023-05-14T12:35:16;9.25;;;3.60;;
76636;SDS011;65532;52.124;5.480;2023-05-14T12:37:42;7.43;;;3.83;;
76636;SDS011;65532;52.124;5.480;2023-05-14T12:40:09;7.32;;;3.63;;
76636;SDS011;65532;52.124;5.480;2023-05-14T12:42:36;6.90;;;3.15;;
76636;SDS011;65532;52.124;5.480;2023-05-14T12:45:03;8.30;;;3.60;;
76636;SDS011;65532;52.124;5.480;2023-05-14T12:47:33;7.20;;;3.13;;
76636;SDS011;65532;52.124;5.480;2023-05-14T12:49:59;7.65;;;3.38;;
76636;SDS011;65532;52.124;5.480;2023-05-14T12:52:26;6.38;;;3.58;;
76636;SDS011;65532;52.124;5.480;2023-05-14T12:55:03;6.68;;;3.30;;
76636;SDS011;65532;52.124;5.480;2023-05-14T12:57:30;7.03;;;3.53;;
76636;SDS011;65532;52.124;5.480;2023-05-14T12:59:57;7.20;;;3.15;;
76636;SDS011;65532;52.124;5.480;2023-05-14T13:02:24;9.13;;;2.83;;
76636;SDS011;65532;52.124;5.480;2023-05-14T13:04:50;8.30;;;3.55;;
76636;SDS011;65532;52.124;5.480;2023-05-14T13:07:17;9.30;;;3.42;;
76636;SDS011;65532;52.124;5.480;2023-05-14T13:09:43;10.25;;;3.17;;
76636;SDS011;65532;52.124;5.480;2023-05-14T13:12:10;7.70;;;3.28;;
76636;SDS011;65532;52.124;5.480;2023-05-14T13:14:36;10.68;;;3.58;;
76636;SDS011;65532;52.124;5.480;2023-05-14T13:17:03;9.35;;;3.63;;
76636;SDS011;65532;52.124;5.480;2023-05-14T13:19:30;7.57;;;3.17;;
76636;SDS011;65532;52.124;5.480;2023-05-14T13:21:56;9.90;;;2.88;;
76636;SDS011;65532;52.124;5.480;2023-05-14T13:24:23;7.53;;;2.65;;
76636;SDS011;65532;52.124;5.480;2023-05-14T13:26:50;6.05;;;3.22;;
76636;SDS011;65532;52.124;5.480;2023-05-14T13:29:16;6.43;;;3.25;;
76636;SDS011;65532;52.124;5.480;2023-05-14T13:31:43;8.00;;;3.15;;
76636;SDS011;65532;52.124;5.480;2023-05-14T13:34:09;6.38;;;2.63;;
76636;SDS011;65532;52.124;5.480;2023-05-14T13:36:35;7.70;;;3.72;;
76636;SDS011;65532;52.124;5.480;2023-05-14T13:39:05;7.63;;;2.55;;
76636;SDS011;65532;52.124;5.480;2023-05-14T13:41:32;8.93;;;3.13;;
76636;SDS011;65532;52.124;5.480;2023-05-14T13:44:00;7.55;;;2.83;;
76636;SDS011;65532;52.124;5.480;2023-05-14T13:46:27;7.35;;;3.10;;
76636;SDS011;65532;52.124;5.480;2023-05-14T13:48:53;6.50;;;2.78;;
76636;SDS011;65532;52.124;5.480;2023-05-14T13:51:21;5.28;;;3.67;;
76636;SDS011;65532;52.124;5.480;2023-05-14T13:53:48;8.10;;;3.28;;
76636;SDS011;65532;52.124;5.480;2023-05-14T13:56:15;8.63;;;2.78;;
76636;SDS011;65532;52.124;5.480;2023-05-14T13:58:41;7.05;;;3.00;;
76636;SDS011;65532;52.124;5.480;2023-05-14T14:01:07;7.82;;;2.97;;
76636;SDS011;65532;52.124;5.480;2023-05-14T14:03:34;5.65;;;3.17;;
76636;SDS011;65532;52.124;5.480;2023-05-14T14:06:00;5.85;;;2.85;;
76636;SDS011;65532;52.124;5.480;2023-05-14T14:08:27;6.78;;;2.78;;
76636;SDS011;65532;52.124;5.480;2023-05-14T14:10:53;6.72;;;3.67;;
76636;SDS011;65532;52.124;5.480;2023-05-14T14:13:20;8.13;;;2.78;;
76636;SDS011;65532;52.124;5.480;2023-05-14T14:15:48;7.70;;;3.20;;
76636;SDS011;65532;52.124;5.480;2023-05-14T14:18:15;6.53;;;2.97;;
76636;SDS011;65532;52.124;5.480;2023-05-14T14:20:41;6.43;;;2.47;;
76636;SDS011;65532;52.124;5.480;2023-05-14T14:23:07;8.43;;;3.13;;
76636;SDS011;65532;52.124;5.480;2023-05-14T14:25:34;4.20;;;2.90;;
76636;SDS011;65532;52.124;5.480;2023-05-14T14:28:00;6.15;;;3.28;;
76636;SDS011;65532;52.124;5.480;2023-05-14T14:30:27;5.53;;;2.60;;
76636;SDS011;65532;52.124;5.480;2023-05-14T14:32:53;6.47;;;3.10;;
76636;SDS011;65532;52.124;5.480;2023-05-14T14:35:20;9.30;;;3.60;;
76636;SDS011;65532;52.124;5.480;2023-05-14T14:37:47;5.93;;;2.75;;
76636;SDS011;65532;52.124;5.480;2023-05-14T14:40:18;10.90;;;3.42;;
76636;SDS011;65532;52.124;5.480;2023-05-14T14:42:45;5.80;;;2.83;;
76636;SDS011;65532;52.124;5.480;2023-05-14T14:45:11;8.00;;;2.67;;